Portada
METAR-TAF:

METAR-TAF

Aeropuertos :

Córdoba, Argentina

Aeropuerto Internacional Ingeniero Ambrosio Taravella

latitud: 31-19S, longitud: 064-13W, altitud: 484 m

Observación

El informe se hizo hace 55 minutos, a las 10:00 UTC
Viento calma
Temperatura 5°C
Humedad 87%
Presión 1019 hPa
Visibilidad 10 km o más
sin nubes por debajo de 1500 m y sin presencia de cumulonimbus.

METAR: SACO 301000Z 00000KT CAVOK 05/03 Q1019

Hora: 07:55 (10:55 UTC)

Pronóstico

El informe se hizo hace 5 horas y 55 minutos, a las 05:00 UTC
Pronóstico válido del 30 a las 06 UTC al 01 a las 06 UTC
Viento 5 kt del norte
Visibilidad 10 km o más
sin nubes por debajo de 1500 m y sin presencia de cumulonimbus.
Evolucionando progresivamente
del 30 a las 12 UTC al 30 a las 15 UTC
Viento 15 kt del noreste

TAF: SACO 300500Z 3006/0106 35005KT CAVOK TX29/3018Z TN06/3010Z BECMG 3012/3015 05015KT

Observaciones y pronósticos meteorológicos de más de 4000 aeropuertos (mensajes METAR y TAF).

Los puntos amarillos y rojos representan las estaciones disponibles.

Ponga el ratón en el punto deseado para ver el nombre de la estación.

Haga clic para ver las observaciones y los pronósticos meteorológicos.

Para cambiar el mapa : haga clic en los botones verdes con una cruz de color negro para hacer un zoom, en el botón verde con un guión para alejar o en las flechas verdes para mapas adyacentes.


METAR-TAF: